Time;durP1;ratioP1;P1;durP2;ratioP2;P2;SDS_P1;SDS_P2;PMS_P1;PMS_P2;Temp;Humidity;BMP_temperature;BMP_pressure;BME280_temperature;BME280_humidity;BME280_pressure;Samples;Min_cycle;Max_cycle;Signal;HPM_P1;HPM_P2
2021/11/08 00:00:22;;;;;;;1.20;1.10;;;8.70;98.00;;;;;;6153005;23;20401;-69
2021/11/08 00:02:49;;;;;;;1.20;1.00;;;8.80;98.00;;;;;;6155103;23;20435;-69
2021/11/08 00:05:18;;;;;;;1.50;1.10;;;8.70;98.00;;;;;;6154780;23;20451;-69
2021/11/08 00:07:49;;;;;;;2.27;1.10;;;8.70;98.00;;;;;;6155310;23;20406;-68
2021/11/08 00:10:16;;;;;;;1.20;0.90;;;8.80;98.00;;;;;;6164877;23;20420;-69
2021/11/08 00:12:43;;;;;;;4.67;1.80;;;8.90;98.00;;;;;;6154954;23;20414;-69
2021/11/08 00:15:16;;;;;;;1.70;1.70;;;8.80;98.00;;;;;;6153443;23;20405;-69
2021/11/08 00:17:59;;;;;;;1.20;1.10;;;8.90;98.00;;;;;;6155288;23;20778;-69
2021/11/08 00:20:28;;;;;;;1.30;1.03;;;8.90;98.00;;;;;;6155129;23;20456;-70
2021/11/08 00:22:55;;;;;;;1.30;1.20;;;8.80;98.00;;;;;;6153873;23;20773;-68
2021/11/08 00:25:22;;;;;;;1.20;1.00;;;8.70;98.00;;;;;;6155209;23;20454;-69
2021/11/08 00:27:49;;;;;;;1.20;1.00;;;8.70;98.00;;;;;;6154969;23;20401;-69
2021/11/08 00:30:18;;;;;;;1.20;1.00;;;8.60;98.00;;;;;;6155114;23;20456;-69
2021/11/08 00:32:48;;;;;;;1.20;1.00;;;8.50;98.00;;;;;;6154997;23;20405;-69
2021/11/08 00:35:16;;;;;;;1.20;1.00;;;8.50;98.00;;;;;;6155078;23;20497;-68
2021/11/08 00:37:45;;;;;;;1.50;1.10;;;8.50;98.00;;;;;;6154847;23;20410;-69
2021/11/08 00:40:12;;;;;;;1.40;1.17;;;8.40;98.00;;;;;;6153102;23;20467;-68
2021/11/08 00:42:40;;;;;;;1.20;1.10;;;8.40;98.00;;;;;;6155271;23;20404;-68
2021/11/08 00:45:08;;;;;;;1.30;1.20;;;8.60;98.00;;;;;;6155114;23;20459;-69
2021/11/08 00:47:37;;;;;;;1.20;1.03;;;8.60;98.00;;;;;;6153462;23;20460;-69
2021/11/08 00:50:05;;;;;;;1.20;1.10;;;8.80;98.00;;;;;;6154650;23;20884;-68
2021/11/08 00:52:34;;;;;;;1.53;1.30;;;8.80;98.00;;;;;;6155313;23;20416;-68
2021/11/08 00:55:02;;;;;;;1.20;1.00;;;8.60;98.00;;;;;;6154871;23;20430;-70
2021/11/08 00:57:32;;;;;;;1.73;1.30;;;8.50;98.00;;;;;;6155431;23;20407;-70
2021/11/08 01:00:00;;;;;;;1.60;1.30;;;8.50;98.00;;;;;;6155240;23;20421;-69
2021/11/08 01:02:29;;;;;;;3.40;2.33;;;8.50;98.00;;;;;;6155236;23;20410;-68
2021/11/08 01:04:59;;;;;;;1.30;1.10;;;8.50;98.00;;;;;;6154692;23;20436;-68
2021/11/08 01:07:26;;;;;;;1.20;1.20;;;8.60;98.00;;;;;;6155141;23;20424;-69
2021/11/08 01:09:53;;;;;;;1.30;1.20;;;8.60;98.00;;;;;;6154312;23;20459;-69
2021/11/08 01:12:25;;;;;;;1.20;1.07;;;8.60;98.00;;;;;;6154548;23;20467;-69
2021/11/08 01:14:52;;;;;;;1.20;1.00;;;8.60;98.00;;;;;;6154697;23;20728;-68
2021/11/08 01:17:21;;;;;;;1.20;1.10;;;8.70;98.00;;;;;;6154234;23;20507;-69
2021/11/08 01:19:49;;;;;;;1.40;1.30;;;8.80;98.00;;;;;;6152664;23;20417;-68
2021/11/08 01:22:20;;;;;;;1.40;1.20;;;8.80;98.00;;;;;;6154811;23;20415;-69
2021/11/08 01:24:53;;;;;;;1.73;1.20;;;8.70;98.00;;;;;;6154403;23;20880;-68
2021/11/08 01:27:25;;;;;;;1.20;1.10;;;8.60;98.00;;;;;;6154777;23;20410;-68
2021/11/08 01:29:53;;;;;;;1.20;1.00;;;8.50;98.00;;;;;;6154218;23;20394;-68
2021/11/08 01:32:20;;;;;;;1.87;1.20;;;8.40;98.00;;;;;;6152352;23;21205;-68
2021/11/08 01:34:47;;;;;;;1.23;1.23;;;8.40;98.00;;;;;;6154306;23;20407;-69
2021/11/08 01:37:16;;;;;;;2.23;1.10;;;8.50;98.00;;;;;;6153153;23;20403;-68
2021/11/08 01:39:45;;;;;;;1.20;1.03;;;8.50;98.00;;;;;;6154025;23;20422;-69
2021/11/08 01:42:14;;;;;;;1.20;1.10;;;8.30;98.00;;;;;;6154438;23;20425;-69
2021/11/08 01:44:41;;;;;;;1.20;1.10;;;8.20;98.00;;;;;;6154639;23;20401;-68
2021/11/08 01:47:09;;;;;;;1.20;0.90;;;8.00;98.00;;;;;;6168277;23;21040;-69
2021/11/08 01:49:38;;;;;;;1.40;1.10;;;8.00;98.00;;;;;;6184209;23;20411;-69
2021/11/08 01:52:07;;;;;;;7.33;1.53;;;8.00;98.00;;;;;;6184451;23;20488;-68
2021/11/08 01:54:38;;;;;;;1.20;1.00;;;7.90;98.00;;;;;;6184200;23;20479;-69
2021/11/08 01:57:08;;;;;;;1.33;1.07;;;8.00;98.00;;;;;;6183694;23;20731;-70
2021/11/08 01:59:36;;;;;;;1.20;0.90;;;8.00;98.00;;;;;;6184493;23;21093;-69
2021/11/08 02:02:03;;;;;;;3.53;1.30;;;8.00;98.00;;;;;;6184428;23;20885;-69
2021/11/08 02:04:30;;;;;;;1.30;1.10;;;7.90;98.00;;;;;;6184511;23;20404;-69
2021/11/08 02:06:57;;;;;;;1.77;1.17;;;7.90;98.00;;;;;;6184161;23;20541;-68
2021/11/08 02:09:24;;;;;;;1.67;1.30;;;8.10;98.00;;;;;;6184504;23;20479;-69
2021/11/08 02:11:51;;;;;;;1.20;1.00;;;8.10;98.00;;;;;;6184418;23;20937;-68
2021/11/08 02:14:20;;;;;;;1.90;1.27;;;7.90;98.00;;;;;;6184186;23;20925;-69
2021/11/08 02:16:47;;;;;;;1.20;1.20;;;7.80;98.00;;;;;;6184475;23;20466;-69
2021/11/08 02:19:14;;;;;;;1.20;0.90;;;7.60;98.00;;;;;;6158190;23;20824;-69
2021/11/08 02:21:43;;;;;;;1.20;1.00;;;7.50;98.00;;;;;;6184188;23;20448;-69
2021/11/08 02:24:15;;;;;;;1.60;1.50;;;7.30;98.00;;;;;;6182072;23;20427;-68
2021/11/08 02:26:43;;;;;;;1.50;1.10;;;7.20;98.00;;;;;;6183941;23;20824;-68
2021/11/08 02:29:12;;;;;;;1.50;1.20;;;7.20;98.00;;;;;;6185425;23;20403;-68
2021/11/08 02:31:40;;;;;;;1.40;1.23;;;7.20;98.00;;;;;;6185612;23;20498;-69
2021/11/08 02:34:07;;;;;;;1.77;1.20;;;7.20;98.00;;;;;;6185726;23;20402;-68
2021/11/08 02:36:34;;;;;;;1.20;0.90;;;7.10;98.00;;;;;;6159428;23;20421;-68
2021/11/08 02:39:04;;;;;;;1.20;1.00;;;7.10;98.00;;;;;;6185862;23;20463;-67
2021/11/08 02:41:31;;;;;;;1.20;1.00;;;7.10;98.00;;;;;;6185571;23;20449;-69
2021/11/08 02:44:00;;;;;;;1.20;1.00;;;7.20;98.00;;;;;;6185969;23;20507;-68
2021/11/08 02:46:27;;;;;;;1.20;1.10;;;7.20;98.00;;;;;;6185211;23;20461;-69
2021/11/08 02:48:58;;;;;;;1.20;1.10;;;7.30;98.00;;;;;;6185597;23;20399;-69
2021/11/08 02:51:28;;;;;;;1.20;1.00;;;7.40;98.00;;;;;;6160288;23;20408;-68
2021/11/08 02:54:03;;;;;;;1.20;1.00;;;7.30;98.00;;;;;;6185883;23;20404;-69
2021/11/08 02:56:33;;;;;;;1.37;1.20;;;7.20;98.00;;;;;;6183878;23;20419;-69
2021/11/08 02:59:00;;;;;;;1.30;1.27;;;7.10;98.00;;;;;;6185739;23;20458;-68
2021/11/08 03:01:28;;;;;;;1.20;1.00;;;7.10;98.00;;;;;;6185678;23;20972;-68
2021/11/08 03:03:57;;;;;;;1.30;1.10;;;7.10;98.00;;;;;;6159819;23;20421;-69
2021/11/08 03:06:28;;;;;;;1.33;1.27;;;7.10;98.00;;;;;;6185614;23;20512;-68
2021/11/08 03:08:57;;;;;;;1.20;1.10;;;7.10;98.00;;;;;;6185495;23;21082;-69
2021/11/08 03:11:24;;;;;;;1.60;1.30;;;7.20;98.00;;;;;;6185771;23;20407;-69
2021/11/08 03:14:00;;;;;;;1.40;1.20;;;7.30;98.00;;;;;;6185431;23;20400;-69
2021/11/08 03:16:35;;;;;;;1.20;1.00;;;7.30;98.00;;;;;;6185679;23;20729;-69
2021/11/08 03:19:13;;;;;;;1.30;1.20;;;7.30;98.00;;;;;;6185719;23;20407;-69
2021/11/08 03:21:40;;;;;;;1.20;1.07;;;7.40;98.00;;;;;;6185408;23;20888;-69
2021/11/08 03:24:08;;;;;;;2.33;1.10;;;7.50;98.00;;;;;;6185206;23;20414;-68
2021/11/08 03:26:42;;;;;;;1.20;1.00;;;7.60;98.00;;;;;;6185478;23;20515;-69
2021/11/08 03:29:11;;;;;;;1.20;1.00;;;7.60;98.00;;;;;;6185038;23;20404;-69
2021/11/08 03:31:40;;;;;;;1.20;1.00;;;7.70;98.00;;;;;;6184327;23;20400;-69
2021/11/08 03:34:09;;;;;;;1.53;1.00;;;7.70;98.00;;;;;;6185003;23;20727;-70
2021/11/08 03:36:36;;;;;;;1.20;1.00;;;7.80;98.00;;;;;;6185248;23;20399;-69
2021/11/08 03:39:04;;;;;;;1.20;1.00;;;7.60;98.00;;;;;;6185200;23;20462;-68
2021/11/08 03:41:31;;;;;;;1.17;0.90;;;7.50;98.00;;;;;;6185293;23;20396;-69
2021/11/08 03:43:58;;;;;;;1.20;1.00;;;7.50;98.00;;;;;;6185377;23;20404;-68
2021/11/08 03:46:30;;;;;;;1.63;1.17;;;7.50;98.00;;;;;;6184772;23;20477;-68
2021/11/08 03:48:57;;;;;;;1.33;1.20;;;7.30;98.00;;;;;;6184951;23;20398;-69
2021/11/08 03:51:25;;;;;;;1.70;1.10;;;7.10;98.00;;;;;;6185164;23;20412;-69
2021/11/08 03:53:52;;;;;;;2.70;1.00;;;6.90;98.00;;;;;;6185192;23;20403;-69
2021/11/08 03:56:19;;;;;;;1.53;1.20;;;6.90;98.00;;;;;;6158846;23;20415;-68
2021/11/08 03:58:47;;;;;;;1.57;1.17;;;6.80;98.00;;;;;;6185142;23;20439;-68
2021/11/08 04:01:14;;;;;;;1.63;1.30;;;6.80;98.00;;;;;;6185176;23;20747;-68
2021/11/08 04:03:42;;;;;;;3.83;1.37;;;6.90;98.00;;;;;;6184833;23;20399;-69
2021/11/08 04:06:11;;;;;;;1.40;1.20;;;7.00;98.00;;;;;;6159158;23;20982;-68
2021/11/08 04:08:38;;;;;;;1.40;1.27;;;7.10;98.00;;;;;;6185019;23;20407;-69
2021/11/08 04:11:05;;;;;;;1.20;0.93;;;7.10;98.00;;;;;;6184986;23;20793;-68
2021/11/08 04:13:36;;;;;;;2.53;1.60;;;7.10;98.00;;;;;;6185456;23;20492;-68
2021/11/08 04:16:06;;;;;;;1.20;1.00;;;7.00;98.00;;;;;;6185093;23;20439;-69
2021/11/08 04:18:33;;;;;;;1.40;1.23;;;7.00;98.00;;;;;;6185075;23;20410;-70
2021/11/08 04:21:03;;;;;;;1.40;1.20;;;7.10;98.00;;;;;;6184662;23;20415;-68
2021/11/08 04:23:31;;;;;;;1.20;1.10;;;7.20;98.00;;;;;;6185202;23;20403;-68
2021/11/08 04:25:59;;;;;;;1.83;1.20;;;7.20;98.00;;;;;;6184841;23;20429;-68
2021/11/08 04:28:27;;;;;;;1.20;1.00;;;7.20;98.00;;;;;;6185049;23;20470;-69
2021/11/08 04:30:54;;;;;;;1.17;1.00;;;7.10;98.00;;;;;;6184963;23;20454;-68
2021/11/08 04:33:27;;;;;;;2.10;1.20;;;7.10;98.00;;;;;;6184490;23;20402;-69
2021/11/08 04:36:05;;;;;;;1.17;1.00;;;7.00;98.00;;;;;;6184585;23;20482;-70
2021/11/08 04:38:44;;;;;;;1.20;1.00;;;6.90;98.00;;;;;;6184845;23;20476;-69
2021/11/08 04:41:18;;;;;;;1.40;1.10;;;6.90;98.00;;;;;;6160794;23;20401;-70
2021/11/08 04:44:02;;;;;;;1.77;1.20;;;6.80;98.00;;;;;;6185043;23;20399;-69
2021/11/08 04:49:35;;;;;;;1.20;1.00;;;6.70;98.00;;;;;;6184429;23;20396;-69
2021/11/08 04:52:13;;;;;;;1.20;1.10;;;6.80;98.00;;;;;;6184163;23;20457;-69
2021/11/08 04:54:57;;;;;;;1.67;1.50;;;6.80;98.00;;;;;;6184664;23;20398;-68
2021/11/08 05:25:29;;;;;;;1.20;1.07;;;7.40;98.00;;;;;;6182431;23;20715;-69
2021/11/08 05:28:18;;;;;;;1.20;1.10;;;7.50;98.00;;;;;;6184058;23;20431;-69
2021/11/08 05:30:46;;;;;;;2.10;1.00;;;7.60;98.00;;;;;;6184599;23;20554;-69
2021/11/08 05:33:14;;;;;;;1.10;1.00;;;7.60;98.00;;;;;;6158412;23;20452;-68
2021/11/08 05:35:41;;;;;;;1.40;1.20;;;7.80;98.00;;;;;;6158583;23;20403;-68
2021/11/08 05:38:12;;;;;;;1.30;1.20;;;7.80;98.00;;;;;;6184101;23;20505;-69
2021/11/08 05:40:39;;;;;;;1.20;1.10;;;7.90;98.00;;;;;;6184404;23;20435;-69
2021/11/08 05:43:08;;;;;;;1.20;1.07;;;7.70;98.00;;;;;;6184433;23;20752;-68
2021/11/08 05:45:35;;;;;;;1.30;1.10;;;7.70;98.00;;;;;;6183695;23;20437;-68
2021/11/08 05:48:04;;;;;;;1.53;1.30;;;7.70;98.00;;;;;;6184031;23;20535;-69
2021/11/08 05:50:33;;;;;;;1.20;1.10;;;7.60;98.00;;;;;;6184390;23;20435;-69
2021/11/08 05:53:01;;;;;;;1.13;0.90;;;7.50;98.00;;;;;;6184521;23;20770;-69
2021/11/08 05:55:35;;;;;;;1.70;1.60;;;7.50;98.00;;;;;;6158299;23;20397;-68
2021/11/08 05:58:18;;;;;;;1.37;1.20;;;7.50;98.00;;;;;;6184165;23;20425;-68
2021/11/08 06:51:00;;;;;;;1.20;1.10;;;6.40;98.00;;;;;;6094041;23;20418;-69
2021/11/08 06:53:29;;;;;;;1.23;1.03;;;6.40;98.00;;;;;;6163890;23;20423;-71
2021/11/08 06:55:58;;;;;;;1.20;1.00;;;6.20;98.00;;;;;;6185411;23;20412;-69
2021/11/08 06:58:26;;;;;;;1.63;1.63;;;6.00;98.00;;;;;;6186003;23;20392;-70
2021/11/08 07:00:55;;;;;;;2.47;1.60;;;5.90;98.00;;;;;;6185975;23;20402;-71
2021/11/08 07:03:22;;;;;;;2.20;1.10;;;5.80;98.00;;;;;;6184893;23;20456;-70
2021/11/08 07:05:49;;;;;;;1.40;1.20;;;5.80;98.00;;;;;;6185949;23;20406;-69
2021/11/08 07:08:18;;;;;;;1.20;1.17;;;5.90;98.00;;;;;;6160083;23;20435;-70
2021/11/08 07:10:45;;;;;;;1.20;0.90;;;5.90;98.00;;;;;;6185734;23;20483;-69
2021/11/08 07:13:13;;;;;;;2.07;1.27;;;6.00;98.00;;;;;;6186063;23;20423;-69
2021/11/08 07:15:41;;;;;;;1.50;1.20;;;6.10;98.00;;;;;;6185489;23;20457;-69
2021/11/08 07:18:08;;;;;;;2.07;1.30;;;6.30;98.00;;;;;;6186047;23;20709;-70
2021/11/08 07:20:35;;;;;;;1.50;1.40;;;6.40;98.00;;;;;;6185237;23;20901;-69
2021/11/08 07:23:02;;;;;;;1.60;1.57;;;6.60;98.00;;;;;;6185859;23;20469;-70
2021/11/08 07:25:33;;;;;;;1.33;1.30;;;6.50;98.00;;;;;;6184939;23;20428;-69
2021/11/08 07:28:08;;;;;;;1.20;0.97;;;6.40;98.00;;;;;;6185378;23;20444;-70
2021/11/08 07:30:36;;;;;;;2.33;1.10;;;6.40;98.00;;;;;;6185065;23;20437;-71
2021/11/08 07:33:05;;;;;;;1.20;1.00;;;6.50;98.00;;;;;;6184930;23;20432;-70
2021/11/08 07:35:32;;;;;;;1.20;1.10;;;6.70;98.00;;;;;;6185488;23;20494;-69
2021/11/08 07:37:59;;;;;;;1.53;1.30;;;6.80;98.00;;;;;;6185480;23;20409;-71
2021/11/08 07:40:27;;;;;;;1.87;1.20;;;6.90;98.00;;;;;;6158775;23;20433;-69
2021/11/08 07:42:55;;;;;;;1.30;1.10;;;6.90;98.00;;;;;;6185182;23;20466;-70
2021/11/08 07:45:24;;;;;;;1.40;1.23;;;6.80;98.00;;;;;;6184938;23;20403;-69
2021/11/08 07:47:51;;;;;;;1.90;1.53;;;6.90;98.00;;;;;;6185016;23;20443;-69
2021/11/08 07:50:19;;;;;;;1.93;1.43;;;7.00;98.00;;;;;;6185192;23;20422;-70
2021/11/08 07:52:46;;;;;;;1.40;1.30;;;7.00;98.00;;;;;;6185263;23;20462;-69
2021/11/08 07:55:13;;;;;;;2.03;1.30;;;7.00;98.00;;;;;;6185107;23;20406;-69
2021/11/08 07:57:40;;;;;;;1.30;1.10;;;7.10;98.00;;;;;;6185538;23;20401;-70
2021/11/08 08:00:12;;;;;;;1.40;1.13;;;7.10;98.00;;;;;;6185117;23;20402;-70
2021/11/08 08:02:39;;;;;;;1.30;1.20;;;7.10;98.00;;;;;;6184968;23;20419;-69
2021/11/08 08:05:07;;;;;;;1.20;1.00;;;7.20;98.00;;;;;;6183040;23;20400;-70
2021/11/08 08:07:34;;;;;;;1.20;1.10;;;7.30;98.00;;;;;;6157485;23;20478;-71
2021/11/08 08:10:02;;;;;;;1.20;1.00;;;7.50;98.00;;;;;;6183898;23;20407;-71
2021/11/08 08:12:29;;;;;;;1.40;1.10;;;7.60;98.00;;;;;;6157175;23;20419;-70
2021/11/08 08:14:56;;;;;;;1.40;1.40;;;7.70;98.00;;;;;;6184198;23;20454;-70
2021/11/08 08:17:24;;;;;;;2.10;2.00;;;8.20;98.00;;;;;;6183605;23;20422;-69
2021/11/08 08:19:51;;;;;;;1.30;1.30;;;8.40;98.00;;;;;;6184158;23;20791;-70
2021/11/08 08:22:19;;;;;;;1.97;1.67;;;8.50;98.00;;;;;;6184056;23;20461;-70
2021/11/08 08:24:46;;;;;;;3.87;1.37;;;8.30;98.00;;;;;;6183633;23;20952;-68
2021/11/08 08:27:13;;;;;;;1.93;1.30;;;8.30;98.00;;;;;;6183870;23;20437;-68
2021/11/08 08:29:40;;;;;;;1.20;1.10;;;8.20;98.00;;;;;;6184262;23;20404;-68
2021/11/08 08:32:08;;;;;;;1.70;1.17;;;8.20;98.00;;;;;;6184252;23;20492;-67
2021/11/08 08:34:36;;;;;;;5.40;1.60;;;8.00;98.00;;;;;;6183704;23;20405;-67
2021/11/08 08:37:04;;;;;;;1.37;1.27;;;7.80;98.00;;;;;;6183665;23;20403;-68
2021/11/08 08:39:31;;;;;;;1.20;1.10;;;7.70;98.00;;;;;;6183639;23;20478;-68
2021/11/08 08:41:58;;;;;;;1.33;1.20;;;7.60;98.00;;;;;;6183340;23;20478;-68
2021/11/08 08:44:25;;;;;;;1.70;1.10;;;7.50;98.00;;;;;;6183691;23;20422;-67
2021/11/08 08:46:52;;;;;;;2.03;1.40;;;7.40;98.00;;;;;;6151568;23;20453;-69
2021/11/08 08:49:19;;;;;;;1.60;1.20;;;7.60;98.00;;;;;;6153183;23;20427;-69
2021/11/08 08:52:00;;;;;;;1.10;1.00;;;7.70;98.00;;;;;;6153860;23;20401;-69
2021/11/08 08:54:27;;;;;;;2.07;1.40;;;7.90;98.00;;;;;;6152908;23;20420;-70
2021/11/08 08:56:56;;;;;;;3.20;1.67;;;7.90;98.00;;;;;;6152001;23;20465;-69
2021/11/08 08:59:24;;;;;;;1.30;1.20;;;8.00;98.00;;;;;;6153386;23;20451;-69
2021/11/08 09:01:57;;;;;;;1.57;1.30;;;8.10;98.00;;;;;;6153392;23;20407;-70
2021/11/08 09:04:24;;;;;;;1.47;1.23;;;8.20;98.00;;;;;;6150817;23;20414;-68
2021/11/08 09:06:53;;;;;;;1.20;1.10;;;8.30;98.00;;;;;;6152134;23;20398;-69
2021/11/08 09:09:20;;;;;;;1.53;1.50;;;8.40;98.00;;;;;;6152433;23;20452;-70
2021/11/08 09:11:47;;;;;;;9.30;2.13;;;8.50;98.00;;;;;;6152155;23;20464;-70
2021/11/08 09:14:14;;;;;;;1.20;1.10;;;8.70;98.00;;;;;;6153399;23;20412;-70
2021/11/08 09:16:42;;;;;;;1.50;1.30;;;8.50;98.00;;;;;;6153616;23;20472;-70
2021/11/08 09:19:10;;;;;;;1.20;1.03;;;8.40;98.00;;;;;;6153965;23;20404;-73
2021/11/08 09:21:38;;;;;;;2.50;1.87;;;8.40;98.00;;;;;;6153210;23;20406;-72
2021/11/08 09:24:07;;;;;;;2.33;1.30;;;8.70;98.00;;;;;;6153946;23;20405;-72
2021/11/08 09:26:36;;;;;;;1.40;1.33;;;8.80;98.00;;;;;;6153496;23;20403;-71
2021/11/08 09:29:04;;;;;;;1.20;1.10;;;8.70;98.00;;;;;;6153789;23;20920;-71
2021/11/08 09:31:31;;;;;;;1.20;1.00;;;8.80;98.00;;;;;;6153705;23;20402;-72
2021/11/08 09:34:03;;;;;;;1.37;1.13;;;8.80;98.00;;;;;;6153844;23;20480;-70
2021/11/08 09:36:31;;;;;;;1.50;1.30;;;8.90;98.00;;;;;;6153615;23;20755;-71
2021/11/08 09:38:59;;;;;;;1.40;1.23;;;8.90;98.00;;;;;;6152313;23;20428;-69
2021/11/08 09:41:31;;;;;;;1.63;1.33;;;9.00;98.00;;;;;;6153800;23;20417;-70
2021/11/08 09:44:04;;;;;;;1.77;1.10;;;9.10;98.00;;;;;;6153223;23;20410;-71
2021/11/08 09:46:33;;;;;;;2.03;1.40;;;9.00;98.00;;;;;;6159034;23;20432;-69
2021/11/08 09:49:02;;;;;;;1.50;1.10;;;9.00;98.00;;;;;;6183353;23;20448;-70
2021/11/08 09:51:33;;;;;;;1.30;1.10;;;9.20;98.00;;;;;;6155469;23;20536;-70
2021/11/08 09:54:01;;;;;;;1.57;1.30;;;9.00;98.00;;;;;;6182970;23;20874;-70
2021/11/08 09:56:30;;;;;;;1.30;1.00;;;9.00;98.00;;;;;;6182858;23;20403;-71
2021/11/08 09:59:00;;;;;;;1.20;1.00;;;9.10;98.00;;;;;;6182906;23;20494;-70
2021/11/08 10:01:28;;;;;;;1.97;1.17;;;9.20;98.00;;;;;;6183098;23;20405;-70
2021/11/08 10:03:56;;;;;;;1.20;1.10;;;9.30;98.00;;;;;;6182658;23;20434;-70
2021/11/08 10:06:26;;;;;;;1.20;1.00;;;9.40;98.00;;;;;;6182888;23;20493;-70
2021/11/08 10:08:54;;;;;;;1.30;1.20;;;9.50;98.00;;;;;;6182959;23;20459;-71
2021/11/08 10:11:22;;;;;;;1.43;1.40;;;9.60;98.00;;;;;;6182963;23;20398;-70
2021/11/08 10:13:52;;;;;;;1.80;1.33;;;9.70;98.00;;;;;;6182848;23;20493;-71
2021/11/08 10:16:23;;;;;;;2.90;1.43;;;9.50;98.00;;;;;;6183006;23;20408;-70
2021/11/08 10:18:54;;;;;;;1.50;1.50;;;9.30;98.00;;;;;;6182691;23;20451;-69
2021/11/08 10:21:30;;;;;;;1.67;1.30;;;9.40;98.00;;;;;;6182379;23;20404;-71
2021/11/08 10:24:00;;;;;;;1.20;1.10;;;9.60;98.00;;;;;;6182774;23;20396;-70
2021/11/08 10:26:30;;;;;;;1.53;1.43;;;9.80;98.00;;;;;;6183302;23;20399;-70
2021/11/08 10:29:01;;;;;;;1.90;1.23;;;9.90;98.00;;;;;;6182684;23;20460;-69
2021/11/08 10:31:30;;;;;;;1.60;1.43;;;9.90;98.00;;;;;;6182177;23;20780;-70
2021/11/08 10:33:59;;;;;;;2.20;1.53;;;10.00;98.00;;;;;;6182864;23;20413;-70
2021/11/08 10:36:26;;;;;;;1.50;1.50;;;10.10;98.00;;;;;;6183093;23;20452;-70
2021/11/08 10:38:56;;;;;;;2.27;1.47;;;10.30;98.00;;;;;;6183300;23;20402;-70
2021/11/08 10:41:26;;;;;;;1.20;0.90;;;10.30;98.00;;;;;;6182715;23;20400;-70
2021/11/08 10:43:56;;;;;;;1.83;1.40;;;10.30;98.00;;;;;;6183132;23;20407;-70
2021/11/08 10:46:28;;;;;;;1.20;1.00;;;10.30;98.00;;;;;;6182587;23;20428;-70
2021/11/08 10:48:58;;;;;;;1.20;1.10;;;10.30;98.00;;;;;;6183290;23;20467;-70
2021/11/08 10:51:28;;;;;;;1.87;1.20;;;10.30;98.00;;;;;;6157623;23;21053;-70
2021/11/08 10:53:57;;;;;;;1.37;1.10;;;10.20;98.00;;;;;;6184917;23;20406;-70
2021/11/08 10:56:27;;;;;;;2.13;1.63;;;10.20;98.00;;;;;;6184462;23;20406;-70
2021/11/08 10:58:56;;;;;;;1.97;1.47;;;10.10;98.00;;;;;;6185216;23;20413;-70
2021/11/08 11:01:27;;;;;;;1.30;1.10;;;10.00;98.00;;;;;;6184758;23;20427;-70
2021/11/08 11:03:57;;;;;;;1.30;1.00;;;10.20;98.00;;;;;;6185114;23;20406;-70
2021/11/08 11:06:36;;;;;;;1.20;1.00;;;10.60;98.00;;;;;;6184494;23;21076;-69
2021/11/08 11:09:10;;;;;;;1.20;0.97;;;10.80;98.00;;;;;;6184614;23;20485;-67
2021/11/08 11:11:37;;;;;;;1.67;1.20;;;11.00;98.00;;;;;;6184503;23;20401;-70
2021/11/08 11:14:05;;;;;;;1.20;1.10;;;10.90;98.00;;;;;;6184443;23;20404;-70
2021/11/08 11:16:37;;;;;;;1.20;1.00;;;11.00;98.00;;;;;;6184274;23;20414;-70
2021/11/08 11:19:07;;;;;;;1.20;1.10;;;11.10;98.00;;;;;;6184379;23;20772;-70
2021/11/08 11:21:35;;;;;;;1.50;1.37;;;11.00;98.00;;;;;;6184383;23;20469;-70
2021/11/08 11:24:05;;;;;;;1.50;1.10;;;11.00;98.00;;;;;;6158203;23;20413;-71
2021/11/08 11:26:36;;;;;;;1.30;1.07;;;10.90;98.00;;;;;;6184358;23;20772;-70
2021/11/08 11:29:05;;;;;;;1.97;1.30;;;10.90;98.00;;;;;;6184063;23;20894;-70
2021/11/08 11:31:41;;;;;;;1.20;1.10;;;10.70;98.00;;;;;;6184544;23;20823;-70
2021/11/08 11:34:13;;;;;;;1.30;1.10;;;10.70;98.00;;;;;;6183672;23;20450;-70
2021/11/08 11:36:41;;;;;;;1.30;1.10;;;10.60;98.00;;;;;;6184384;23;20465;-70
2021/11/08 11:39:13;;;;;;;1.80;1.50;;;10.60;98.00;;;;;;6184408;23;20396;-70
2021/11/08 11:41:44;;;;;;;1.40;1.30;;;10.60;98.00;;;;;;6158506;23;20461;-71
2021/11/08 11:44:14;;;;;;;1.30;1.20;;;10.90;98.00;;;;;;6184596;23;20405;-71
2021/11/08 11:46:45;;;;;;;1.40;1.10;;;11.30;98.00;;;;;;6152667;23;20438;-70
2021/11/08 11:49:13;;;;;;;1.70;1.20;;;11.70;98.00;;;;;;6154370;23;20438;-71
2021/11/08 11:51:42;;;;;;;1.20;1.10;;;12.00;98.00;;;;;;6154477;23;20747;-71
2021/11/08 11:54:11;;;;;;;1.60;1.20;;;12.20;98.00;;;;;;6154345;23;20405;-71
2021/11/08 11:56:42;;;;;;;1.27;1.20;;;12.30;98.00;;;;;;6153934;23;20421;-71
2021/11/08 11:59:11;;;;;;;1.20;1.03;;;12.30;98.00;;;;;;6154768;23;20410;-70
2021/11/08 12:01:39;;;;;;;2.57;1.20;;;12.50;98.00;;;;;;6154095;23;20459;-71
2021/11/08 12:04:09;;;;;;;3.20;1.60;;;12.60;98.00;;;;;;6154499;23;20396;-70
2021/11/08 12:06:39;;;;;;;1.57;1.10;;;12.60;98.00;;;;;;6154351;23;20448;-71
2021/11/08 12:09:09;;;;;;;1.30;1.20;;;12.80;98.00;;;;;;6154480;23;20487;-70
2021/11/08 12:11:49;;;;;;;1.80;1.50;;;12.80;98.00;;;;;;6154386;23;20493;-70
2021/11/08 12:14:18;;;;;;;1.60;1.23;;;12.80;98.00;;;;;;6152403;23;20499;-70
2021/11/08 12:16:57;;;;;;;1.30;1.20;;;12.90;98.00;;;;;;6154483;23;20414;-70
2021/11/08 12:19:27;;;;;;;1.97;1.37;;;12.90;98.00;;;;;;6152538;23;20412;-70
2021/11/08 12:21:55;;;;;;;1.20;1.10;;;12.80;98.00;;;;;;6153940;23;20399;-71
2021/11/08 12:24:24;;;;;;;1.50;1.23;;;12.90;98.00;;;;;;6154330;23;20406;-71
2021/11/08 12:27:04;;;;;;;1.50;1.40;;;12.80;98.00;;;;;;6153649;23;20906;-72
2021/11/08 12:29:31;;;;;;;1.20;1.00;;;12.80;98.00;;;;;;6153691;23;20501;-73
2021/11/08 12:32:04;;;;;;;1.20;1.10;;;12.80;98.00;;;;;;6153847;23;20408;-72
2021/11/08 12:34:40;;;;;;;1.20;1.20;;;12.70;98.00;;;;;;6153790;23;20404;-72
2021/11/08 12:37:09;;;;;;;1.40;1.30;;;12.80;98.00;;;;;;6154005;23;20481;-72
2021/11/08 12:39:36;;;;;;;1.70;1.30;;;12.80;98.00;;;;;;6153907;23;20406;-72
2021/11/08 12:42:09;;;;;;;1.57;1.40;;;12.80;98.00;;;;;;6153872;23;20438;-72
2021/11/08 12:44:40;;;;;;;1.53;1.27;;;12.80;98.00;;;;;;6154170;23;20456;-72
2021/11/08 12:47:10;;;;;;;1.30;1.20;;;12.80;98.00;;;;;;6167840;23;20428;-73
2021/11/08 12:49:41;;;;;;;2.50;1.53;;;13.00;98.00;;;;;;6157590;23;20453;-74
2021/11/08 12:52:12;;;;;;;1.87;1.30;;;13.10;98.00;;;;;;6183900;23;20397;-72
2021/11/08 12:54:49;;;;;;;1.83;1.40;;;13.30;97.20;;;;;;6183340;23;20893;-71
2021/11/08 12:57:18;;;;;;;1.30;1.10;;;13.60;96.40;;;;;;6183461;23;20404;-71
2021/11/08 12:59:47;;;;;;;1.20;1.10;;;13.70;98.00;;;;;;6157958;23;20399;-70
2021/11/08 13:02:28;;;;;;;1.30;1.17;;;13.60;97.90;;;;;;6184643;23;20460;-70
2021/11/08 13:04:59;;;;;;;1.90;1.40;;;13.50;97.70;;;;;;6184310;23;20493;-69
2021/11/08 13:07:32;;;;;;;4.80;1.63;;;13.50;95.90;;;;;;6184517;23;20409;-71
2021/11/08 13:09:59;;;;;;;1.97;1.20;;;13.60;96.40;;;;;;6184184;23;20439;-71
2021/11/08 13:12:33;;;;;;;1.20;1.17;;;13.60;94.00;;;;;;6183965;23;20406;-71
2021/11/08 13:15:07;;;;;;;1.60;1.47;;;13.20;95.60;;;;;;6184664;23;20476;-70
2021/11/08 13:17:46;;;;;;;1.40;1.30;;;12.80;98.00;;;;;;6184527;23;20408;-70
2021/11/08 13:20:16;;;;;;;1.20;1.00;;;12.50;98.00;;;;;;6184488;23;20405;-70
2021/11/08 13:22:45;;;;;;;1.20;1.03;;;12.40;98.00;;;;;;6184490;23;20719;-70
2021/11/08 13:25:17;;;;;;;1.23;1.07;;;12.10;98.00;;;;;;6184346;23;20409;-70
2021/11/08 13:27:49;;;;;;;1.83;1.30;;;12.10;98.00;;;;;;6184416;23;20404;-70
2021/11/08 13:30:22;;;;;;;1.53;1.30;;;12.10;98.00;;;;;;6184193;23;20516;-70
2021/11/08 13:32:51;;;;;;;1.57;1.00;;;11.90;98.00;;;;;;6184303;23;20399;-70
2021/11/08 13:35:26;;;;;;;1.20;1.00;;;11.50;98.00;;;;;;6184314;23;20714;-70
2021/11/08 13:38:04;;;;;;;1.20;1.17;;;11.40;98.00;;;;;;6184098;23;20410;-70
2021/11/08 13:40:33;;;;;;;1.20;1.00;;;11.30;98.00;;;;;;6184135;23;20419;-71
2021/11/08 13:43:14;;;;;;;2.20;1.40;;;11.20;98.00;;;;;;6183923;23;20883;-70
2021/11/08 13:45:49;;;;;;;1.30;1.10;;;11.20;98.00;;;;;;6184182;23;20412;-69
2021/11/08 13:48:27;;;;;;;1.20;1.00;;;11.20;98.00;;;;;;6184059;23;20485;-70
2021/11/08 13:50:57;;;;;;;1.60;1.23;;;11.10;98.00;;;;;;6184160;23;20404;-70
2021/11/08 13:53:27;;;;;;;1.63;1.47;;;11.10;98.00;;;;;;6184171;23;20852;-70
2021/11/08 13:56:00;;;;;;;1.30;1.23;;;11.10;98.00;;;;;;6183865;23;20404;-71
2021/11/08 13:58:30;;;;;;;1.23;1.07;;;11.10;98.00;;;;;;6183959;23;20400;-70
2021/11/08 14:01:01;;;;;;;1.20;1.10;;;11.10;98.00;;;;;;6183856;23;20406;-70
2021/11/08 14:03:36;;;;;;;1.20;1.00;;;11.20;98.00;;;;;;6184397;23;20780;-70
2021/11/08 14:06:05;;;;;;;1.30;1.10;;;11.00;98.00;;;;;;6184300;23;20444;-70
2021/11/08 14:08:33;;;;;;;1.40;1.10;;;10.90;98.00;;;;;;6183881;23;20401;-70
2021/11/08 14:11:01;;;;;;;1.40;1.20;;;10.70;98.00;;;;;;6183903;23;20407;-70
2021/11/08 14:13:33;;;;;;;1.20;1.00;;;10.60;98.00;;;;;;6183919;23;20495;-70
2021/11/08 14:16:05;;;;;;;1.20;1.07;;;10.60;98.00;;;;;;6183730;23;20484;-70
2021/11/08 14:18:33;;;;;;;1.77;1.20;;;10.60;98.00;;;;;;6183946;23;20461;-71
2021/11/08 14:21:15;;;;;;;1.83;1.73;;;10.60;98.00;;;;;;6158081;23;20398;-70
2021/11/08 14:23:45;;;;;;;1.73;1.30;;;10.80;98.00;;;;;;6158048;23;20897;-70
2021/11/08 14:26:18;;;;;;;1.37;1.10;;;11.00;98.00;;;;;;6160124;23;20407;-70